createdAt,value
2022-12-14T00:01:54.372Z,-6.50
2022-12-14T00:04:21.967Z,-6.40
2022-12-14T00:06:49.531Z,-6.50
2022-12-14T00:09:17.094Z,-6.40
2022-12-14T00:11:44.647Z,-6.30
2022-12-14T00:14:12.299Z,-6.10
2022-12-14T00:16:39.824Z,-5.90
2022-12-14T00:19:07.432Z,-5.80
2022-12-14T00:21:35.129Z,-5.80
2022-12-14T00:24:02.751Z,-5.80
2022-12-14T00:26:32.317Z,-5.70
2022-12-14T00:29:01.653Z,-5.70
2022-12-14T00:31:31.569Z,-5.60
2022-12-14T00:33:59.516Z,-5.60
2022-12-14T00:36:27.337Z,-5.60
2022-12-14T00:38:54.964Z,-5.50
2022-12-14T00:41:22.538Z,-5.50
2022-12-14T00:43:50.184Z,-5.40
2022-12-14T00:46:18.380Z,-5.40
2022-12-14T00:48:46.236Z,-5.40
2022-12-14T00:51:15.164Z,-5.30
2022-12-14T00:53:44.732Z,-5.30
2022-12-14T00:56:12.782Z,-5.20
2022-12-14T00:58:41.404Z,-5.40
2022-12-14T01:01:13.627Z,-5.40
2022-12-14T01:03:42.856Z,-5.40
2022-12-14T01:06:19.274Z,-5.50
2022-12-14T01:08:48.137Z,-5.50
2022-12-14T01:11:16.797Z,-5.50
2022-12-14T01:13:44.471Z,-5.50
2022-12-14T01:16:18.029Z,-5.50
2022-12-14T01:18:45.811Z,-5.50
2022-12-14T01:21:22.699Z,-5.60
2022-12-14T01:24:02.395Z,-5.60
2022-12-14T01:26:31.532Z,-5.60
2022-12-14T01:28:59.786Z,-5.70
2022-12-14T01:31:34.210Z,-5.70
2022-12-14T01:34:01.993Z,-5.80
2022-12-14T01:36:32.618Z,-5.80
2022-12-14T01:39:04.549Z,-5.80
2022-12-14T01:41:41.587Z,-5.90
2022-12-14T01:44:09.117Z,-5.80
2022-12-14T01:46:52.058Z,-5.80
2022-12-14T01:49:30.576Z,-6.00
2022-12-14T01:52:05.208Z,-6.20
2022-12-14T01:54:35.675Z,-6.30
2022-12-14T01:57:03.803Z,-6.20
2022-12-14T01:59:36.522Z,-6.20
2022-12-14T02:02:08.167Z,-6.30
2022-12-14T02:04:38.647Z,-6.20
2022-12-14T02:07:06.282Z,-6.00
2022-12-14T02:09:38.723Z,-6.20
2022-12-14T02:12:14.820Z,-6.30
2022-12-14T02:14:43.746Z,-6.30
2022-12-14T02:17:13.606Z,-6.10
2022-12-14T02:19:44.180Z,-6.00
2022-12-14T02:22:45.860Z,-6.00
2022-12-14T02:25:28.436Z,-6.40
2022-12-14T02:28:07.975Z,-6.50
2022-12-14T02:30:45.128Z,-6.50
2022-12-14T02:33:37.586Z,-6.30
2022-12-14T02:36:20.912Z,-6.40
2022-12-14T02:39:17.565Z,-6.30
2022-12-14T02:41:51.413Z,-6.20
2022-12-14T02:44:31.510Z,-6.10
2022-12-14T02:47:21.244Z,-5.90
2022-12-14T02:50:04.297Z,-5.80
2022-12-14T02:52:47.329Z,-5.60
2022-12-14T02:55:31.604Z,-5.50
2022-12-14T02:58:17.748Z,-5.50
2022-12-14T03:00:46.186Z,-5.50
2022-12-14T03:03:13.936Z,-5.60
2022-12-14T03:05:41.588Z,-5.50
2022-12-14T03:08:13.337Z,-5.50
2022-12-14T03:11:15.991Z,-5.40
2022-12-14T03:14:01.060Z,-5.40
2022-12-14T03:16:44.477Z,-5.40
2022-12-14T03:19:18.010Z,-5.40
2022-12-14T03:21:55.524Z,-5.50
2022-12-14T03:24:32.742Z,-5.70
2022-12-14T03:27:06.058Z,-5.60
2022-12-14T03:29:41.258Z,-5.40
2022-12-14T03:32:11.523Z,-5.30
2022-12-14T03:34:45.915Z,-5.40
2022-12-14T03:37:17.279Z,-5.70
2022-12-14T03:39:46.378Z,-5.50
2022-12-14T03:42:40.148Z,-5.40
2022-12-14T03:45:16.583Z,-5.30
2022-12-14T03:48:01.603Z,-5.20
2022-12-14T03:50:34.805Z,-5.40
2022-12-14T03:53:15.241Z,-5.30
2022-12-14T03:55:59.834Z,-5.70
2022-12-14T03:58:45.722Z,-5.50
2022-12-14T04:01:21.449Z,-5.50
2022-12-14T04:04:11.323Z,-5.50
2022-12-14T04:06:38.978Z,-5.80
2022-12-14T04:09:32.295Z,-5.60
2022-12-14T04:12:50.942Z,-5.50
2022-12-14T04:15:50.304Z,-5.50
2022-12-14T04:18:57.535Z,-5.50
2022-12-14T04:21:45.486Z,-5.50
2022-12-14T04:24:55.050Z,-5.70
2022-12-14T04:27:37.559Z,-5.70
2022-12-14T04:30:07.457Z,-5.70
2022-12-14T04:32:37.902Z,-5.50
2022-12-14T04:35:29.025Z,-5.70
2022-12-14T04:38:02.579Z,-5.50
2022-12-14T04:40:59.121Z,-5.40
2022-12-14T04:43:33.822Z,-5.50
2022-12-14T04:46:08.646Z,-5.30
2022-12-14T04:48:49.219Z,-5.40
2022-12-14T04:51:16.822Z,-5.20
2022-12-14T04:53:48.008Z,-5.30
2022-12-14T04:56:40.291Z,-5.30
2022-12-14T04:59:09.041Z,-5.20
2022-12-14T05:01:49.154Z,-5.70
2022-12-14T05:04:35.980Z,-5.60
2022-12-14T05:07:25.428Z,-5.60
2022-12-14T05:09:56.430Z,-5.60
2022-12-14T05:12:46.437Z,-5.50
2022-12-14T05:15:18.675Z,-5.60
2022-12-14T05:17:46.512Z,-5.50
2022-12-14T05:20:20.477Z,-5.50
2022-12-14T05:22:48.447Z,-5.60
2022-12-14T05:25:16.793Z,-5.30
2022-12-14T05:27:44.477Z,-5.30
2022-12-14T05:30:12.800Z,-5.10
2022-12-14T05:32:40.838Z,-4.90
2022-12-14T05:35:11.619Z,-5.20
2022-12-14T05:37:39.428Z,-5.30
2022-12-14T05:40:07.898Z,-5.40
2022-12-14T05:42:38.298Z,-5.20
2022-12-14T05:45:12.534Z,-5.30
2022-12-14T05:47:40.476Z,-5.20
2022-12-14T05:50:08.766Z,-5.20
2022-12-14T05:52:36.406Z,-5.30
2022-12-14T05:55:05.082Z,-5.00
2022-12-14T05:57:32.782Z,-5.20
2022-12-14T06:00:00.418Z,-5.10
2022-12-14T06:02:28.096Z,-5.00
2022-12-14T06:04:55.755Z,-5.20
2022-12-14T06:07:27.721Z,-5.20
2022-12-14T06:09:55.915Z,-5.20
2022-12-14T06:12:23.528Z,-5.30
2022-12-14T06:14:51.216Z,-5.30
2022-12-14T06:17:18.821Z,-5.20
2022-12-14T06:19:49.550Z,-5.40
2022-12-14T06:22:18.596Z,-5.40
2022-12-14T06:24:46.217Z,-5.40
2022-12-14T06:27:13.796Z,-5.20
2022-12-14T06:29:41.357Z,-5.10
2022-12-14T06:32:08.989Z,-5.00
2022-12-14T06:34:39.252Z,-4.90
2022-12-14T06:37:09.338Z,-5.10
2022-12-14T06:39:37.013Z,-5.20
2022-12-14T06:42:05.122Z,-5.10
2022-12-14T06:44:32.738Z,-4.90
2022-12-14T06:47:00.476Z,-4.70
2022-12-14T06:49:28.158Z,-4.80
2022-12-14T06:51:55.817Z,-4.90
2022-12-14T06:54:23.376Z,-4.80
2022-12-14T06:56:51.034Z,-4.80
2022-12-14T06:59:18.800Z,-4.80
2022-12-14T07:01:49.834Z,-4.90
2022-12-14T07:04:21.398Z,-4.90
2022-12-14T07:06:49.480Z,-4.80
2022-12-14T07:09:17.085Z,-4.90
2022-12-14T07:11:44.678Z,-5.00
2022-12-14T07:14:16.698Z,-5.10
2022-12-14T07:16:48.311Z,-4.90
2022-12-14T07:19:17.320Z,-4.90
2022-12-14T07:21:44.995Z,-4.90
2022-12-14T07:24:12.946Z,-4.60
2022-12-14T07:26:40.572Z,-4.70
2022-12-14T07:29:09.397Z,-4.80
2022-12-14T07:31:37.059Z,-4.70
2022-12-14T07:34:04.712Z,-4.60
2022-12-14T07:36:33.086Z,-4.80
2022-12-14T07:39:00.708Z,-4.70
2022-12-14T07:41:31.194Z,-4.70
2022-12-14T07:44:00.722Z,-4.90
2022-12-14T07:46:30.488Z,-4.90
2022-12-14T07:48:59.300Z,-4.80
2022-12-14T07:51:32.377Z,-4.70
2022-12-14T07:54:01.718Z,-4.70
2022-12-14T07:56:32.615Z,-5.00
2022-12-14T07:59:02.193Z,-4.70
2022-12-14T08:01:32.354Z,-4.70
2022-12-14T08:04:09.700Z,-4.80
2022-12-14T08:06:39.066Z,-4.80
2022-12-14T08:09:09.186Z,-4.60
2022-12-14T08:11:37.516Z,-4.50
2022-12-14T08:14:17.464Z,-4.60
2022-12-14T08:16:46.901Z,-4.60
2022-12-14T08:19:15.037Z,-4.40
2022-12-14T08:21:43.097Z,-4.40
2022-12-14T08:24:12.123Z,-4.50
2022-12-14T08:26:40.591Z,-4.50
2022-12-14T08:29:08.705Z,-4.50
2022-12-14T08:31:36.349Z,-4.50
2022-12-14T08:34:05.316Z,-4.50
2022-12-14T08:36:34.699Z,-4.40
2022-12-14T08:39:05.775Z,-4.40
2022-12-14T08:41:33.710Z,-4.30
2022-12-14T08:44:02.835Z,-4.20
2022-12-14T08:46:32.641Z,-4.30
2022-12-14T08:49:00.521Z,-4.30
2022-12-14T08:51:29.510Z,-4.30
2022-12-14T08:53:58.358Z,-4.40
2022-12-14T08:56:28.527Z,-4.30
2022-12-14T08:58:56.951Z,-4.20
2022-12-14T09:01:32.927Z,-4.30
2022-12-14T09:04:06.725Z,-4.20
2022-12-14T09:06:37.482Z,-4.40
2022-12-14T09:09:13.304Z,-4.40
2022-12-14T09:11:44.789Z,-4.30
2022-12-14T09:14:12.690Z,-4.30
2022-12-14T09:16:41.020Z,-4.30
2022-12-14T09:19:08.978Z,-4.30
2022-12-14T09:21:36.705Z,-4.40
2022-12-14T09:24:06.154Z,-4.50
2022-12-14T09:26:33.959Z,-4.40
2022-12-14T09:29:01.579Z,-4.40
2022-12-14T09:31:29.252Z,-4.40
2022-12-14T09:33:57.189Z,-4.30
2022-12-14T09:36:28.141Z,-4.30
2022-12-14T09:39:00.410Z,-4.30
2022-12-14T09:41:44.612Z,-4.50
2022-12-14T09:44:32.875Z,-4.30
2022-12-14T09:47:09.380Z,-4.30
2022-12-14T09:49:41.820Z,-4.30
2022-12-14T09:52:16.543Z,-4.40
2022-12-14T09:54:50.070Z,-4.30
2022-12-14T09:57:30.505Z,-4.20
2022-12-14T09:59:58.184Z,-4.60
2022-12-14T10:02:42.713Z,-4.40
2022-12-14T10:05:48.266Z,-4.30
2022-12-14T10:08:59.113Z,-4.30
2022-12-14T10:11:54.552Z,-4.10
2022-12-14T10:14:57.375Z,-4.00
2022-12-14T10:17:45.576Z,-4.00
2022-12-14T10:20:43.183Z,-4.00
2022-12-14T10:23:21.094Z,-4.00
2022-12-14T10:25:54.492Z,-4.00
2022-12-14T10:28:45.955Z,-4.00
2022-12-14T10:31:18.196Z,-3.80
2022-12-14T10:33:47.031Z,-4.00
2022-12-14T10:36:29.778Z,-4.20
2022-12-14T10:39:00.261Z,-4.10
2022-12-14T10:42:06.282Z,-4.00
2022-12-14T10:47:57.152Z,-4.10
2022-12-14T10:50:58.716Z,-4.10
2022-12-14T10:53:40.858Z,-4.10
2022-12-14T10:56:39.929Z,-4.00
2022-12-14T10:59:22.499Z,-3.90
2022-12-14T11:02:04.315Z,-3.60
2022-12-14T11:04:51.025Z,-3.70
2022-12-14T11:07:22.190Z,-3.70
2022-12-14T11:09:49.837Z,-3.70
2022-12-14T11:12:23.842Z,-3.60
2022-12-14T11:14:56.692Z,-3.80
2022-12-14T11:17:39.627Z,-3.70
2022-12-14T11:20:22.386Z,-3.60
2022-12-14T11:23:07.585Z,-3.60
2022-12-14T11:25:42.532Z,-3.60
2022-12-14T11:28:18.569Z,-3.50
2022-12-14T11:31:04.291Z,-3.60
2022-12-14T11:33:50.181Z,-3.70
2022-12-14T11:36:32.697Z,-3.70
2022-12-14T11:39:18.443Z,-3.60
2022-12-14T11:42:01.845Z,-3.60
2022-12-14T11:44:33.367Z,-3.50
2022-12-14T11:47:00.885Z,-3.50
2022-12-14T11:49:43.147Z,-3.50
2022-12-14T11:52:14.300Z,-3.70
2022-12-14T11:54:50.145Z,-3.60
2022-12-14T11:57:27.052Z,-3.50
2022-12-14T12:00:08.047Z,-3.40
2022-12-14T12:02:46.585Z,-3.30
2022-12-14T12:05:20.727Z,-3.50
2022-12-14T12:08:01.102Z,-3.30
2022-12-14T12:10:41.969Z,-3.30
2022-12-14T12:13:21.807Z,-3.10
2022-12-14T12:15:56.788Z,-3.00
2022-12-14T12:18:39.277Z,-3.10
2022-12-14T12:21:34.814Z,-3.10
2022-12-14T12:24:20.566Z,-3.20
2022-12-14T12:27:00.618Z,-3.10
2022-12-14T12:29:39.402Z,-3.10
2022-12-14T12:32:10.821Z,-3.10
2022-12-14T12:35:01.339Z,-3.10
2022-12-14T12:38:01.253Z,-3.30
2022-12-14T12:40:38.537Z,-3.30
2022-12-14T12:43:16.047Z,-3.50
2022-12-14T12:45:57.275Z,-3.40
2022-12-14T12:48:41.737Z,-3.30
2022-12-14T12:51:19.358Z,-3.20
2022-12-14T12:53:52.515Z,-3.10
2022-12-14T12:56:25.508Z,-3.20
2022-12-14T12:58:53.509Z,-3.30
2022-12-14T13:01:34.415Z,-3.10
2022-12-14T13:04:05.743Z,-3.10
2022-12-14T13:06:55.973Z,-3.10
2022-12-14T13:09:41.080Z,-3.20
2022-12-14T13:12:27.232Z,-3.30
2022-12-14T13:14:56.593Z,-3.10
2022-12-14T13:17:28.375Z,-3.10
2022-12-14T13:19:58.543Z,-3.20
2022-12-14T13:22:30.000Z,-3.10
2022-12-14T13:25:26.227Z,-3.30
2022-12-14T13:28:32.557Z,-3.10
2022-12-14T13:31:24.598Z,-3.10
2022-12-14T13:33:57.451Z,-3.20
2022-12-14T13:36:49.854Z,-3.10
2022-12-14T13:39:50.954Z,-3.10
2022-12-14T13:42:42.482Z,-3.00
2022-12-14T13:45:28.316Z,-2.90
2022-12-14T13:47:58.230Z,-2.90
2022-12-14T13:50:36.727Z,-3.10
2022-12-14T13:53:25.060Z,-3.10
2022-12-14T13:55:55.823Z,-2.90
2022-12-14T13:58:38.866Z,-3.00
2022-12-14T14:01:17.101Z,-2.90
2022-12-14T14:03:47.671Z,-3.00
2022-12-14T14:06:19.925Z,-3.10
2022-12-14T14:08:50.772Z,-3.00
2022-12-14T14:11:36.270Z,-2.80
2022-12-14T14:14:22.777Z,-2.80
2022-12-14T14:16:56.304Z,-3.00
2022-12-14T14:19:35.024Z,-2.80
2022-12-14T14:22:26.031Z,-2.80
2022-12-14T14:25:09.882Z,-2.80
2022-12-14T14:27:50.155Z,-2.70
2022-12-14T14:30:41.964Z,-2.60
2022-12-14T14:33:47.236Z,-2.60
2022-12-14T14:36:21.871Z,-2.70
2022-12-14T14:38:50.760Z,-2.90
2022-12-14T14:41:37.601Z,-3.00
2022-12-14T14:44:19.008Z,-2.80
2022-12-14T14:46:49.627Z,-2.90
2022-12-14T14:49:30.607Z,-2.80
2022-12-14T14:52:36.755Z,-2.90
2022-12-14T14:55:52.132Z,-2.90
2022-12-14T14:58:27.934Z,-2.80
2022-12-14T15:01:34.171Z,-2.70
2022-12-14T15:04:18.492Z,-2.80
2022-12-14T15:06:57.511Z,-2.70
2022-12-14T15:09:36.195Z,-2.70
2022-12-14T15:12:22.069Z,-2.70
2022-12-14T15:15:02.344Z,-2.70
2022-12-14T15:17:30.201Z,-2.70
2022-12-14T15:20:00.021Z,-2.80
2022-12-14T15:22:30.692Z,-2.80
2022-12-14T15:25:01.019Z,-2.70
2022-12-14T15:27:37.481Z,-2.80
2022-12-14T15:30:11.295Z,-2.70
2022-12-14T15:32:48.012Z,-2.60
2022-12-14T15:35:18.885Z,-2.70
2022-12-14T15:37:59.915Z,-2.70
2022-12-14T15:40:30.650Z,-2.60
2022-12-14T15:43:15.377Z,-2.50
2022-12-14T15:45:47.073Z,-2.50
2022-12-14T15:48:21.525Z,-2.50
2022-12-14T15:50:54.421Z,-2.50
2022-12-14T15:53:32.896Z,-2.50
2022-12-14T15:56:20.992Z,-2.40
2022-12-14T15:58:49.348Z,-2.50
2022-12-14T16:01:19.788Z,-2.50
2022-12-14T16:03:51.770Z,-2.60
2022-12-14T16:06:20.622Z,-2.50
2022-12-14T16:08:58.456Z,-2.40
2022-12-14T16:11:35.407Z,-2.40
2022-12-14T16:14:11.556Z,-2.40
2022-12-14T16:16:39.365Z,-2.30
2022-12-14T16:19:25.700Z,-2.30
2022-12-14T16:22:10.034Z,-2.40
2022-12-14T16:24:52.230Z,-2.40
2022-12-14T16:27:20.412Z,-2.50
2022-12-14T16:30:16.398Z,-2.50
2022-12-14T16:32:49.998Z,-2.60
2022-12-14T16:35:21.373Z,-2.80
2022-12-14T16:37:54.487Z,-2.70
2022-12-14T16:40:31.795Z,-2.60
2022-12-14T16:42:59.981Z,-2.50
2022-12-14T16:46:04.068Z,-2.50
2022-12-14T16:48:35.781Z,-2.40
2022-12-14T16:51:37.902Z,-2.40
2022-12-14T16:54:28.247Z,-2.40
2022-12-14T16:57:03.588Z,-2.50
2022-12-14T16:59:44.253Z,-2.40
2022-12-14T17:02:41.546Z,-2.40
2022-12-14T17:05:17.848Z,-2.40
2022-12-14T17:07:46.053Z,-2.40
2022-12-14T17:10:20.473Z,-2.30
2022-12-14T17:12:49.282Z,-2.20
2022-12-14T17:15:20.217Z,-2.30
2022-12-14T17:17:51.176Z,-2.30
2022-12-14T17:20:29.367Z,-2.20
2022-12-14T17:23:02.862Z,-2.20
2022-12-14T17:25:32.964Z,-2.10
2022-12-14T17:28:01.974Z,-2.20
2022-12-14T17:30:30.126Z,-2.20
2022-12-14T17:32:58.351Z,-2.20
2022-12-14T17:35:30.111Z,-2.10
2022-12-14T17:37:58.479Z,-2.00
2022-12-14T17:40:28.719Z,-2.10
2022-12-14T17:42:58.989Z,-2.10
2022-12-14T17:45:31.077Z,-1.90
2022-12-14T17:47:59.582Z,-1.90
2022-12-14T17:50:28.421Z,-2.00
2022-12-14T17:52:57.314Z,-2.00
2022-12-14T17:55:29.347Z,-2.10
2022-12-14T17:57:58.264Z,-2.00
2022-12-14T18:00:48.291Z,-2.00
2022-12-14T18:03:18.979Z,-2.00
2022-12-14T18:05:49.878Z,-1.90
2022-12-14T18:08:21.220Z,-2.00
2022-12-14T18:11:05.444Z,-2.10
2022-12-14T18:13:38.120Z,-2.00
2022-12-14T18:16:10.470Z,-2.10
2022-12-14T18:18:39.797Z,-2.10
2022-12-14T18:21:22.095Z,-2.10
2022-12-14T18:23:51.321Z,-2.10
2022-12-14T18:26:21.239Z,-2.10
2022-12-14T18:28:52.701Z,-2.00
2022-12-14T18:31:34.312Z,-2.00
2022-12-14T18:34:04.197Z,-2.00
2022-12-14T18:36:35.501Z,-2.00
2022-12-14T18:39:04.089Z,-2.10
2022-12-14T18:41:33.651Z,-2.10
2022-12-14T18:44:04.217Z,-1.90
2022-12-14T18:46:33.225Z,-1.90
2022-12-14T18:49:04.366Z,-1.90
2022-12-14T18:51:33.771Z,-2.00
2022-12-14T18:54:03.410Z,-1.90
2022-12-14T18:56:33.912Z,-1.90
2022-12-14T18:59:03.659Z,-2.00
2022-12-14T19:01:32.922Z,-1.80
2022-12-14T19:04:03.267Z,-1.80
2022-12-14T19:06:43.934Z,-1.90
2022-12-14T19:09:15.065Z,-1.90
2022-12-14T19:11:45.585Z,-1.90
2022-12-14T19:14:15.612Z,-1.80
2022-12-14T19:16:46.190Z,-1.80
2022-12-14T19:19:19.865Z,-1.90
2022-12-14T19:21:52.466Z,-1.80
2022-12-14T19:24:21.331Z,-1.80
2022-12-14T19:26:51.533Z,-1.90
2022-12-14T19:29:20.770Z,-1.90
2022-12-14T19:31:54.358Z,-1.80
2022-12-14T19:34:25.248Z,-1.80
2022-12-14T19:36:55.799Z,-1.80
2022-12-14T19:39:25.305Z,-1.80
2022-12-14T19:41:55.135Z,-2.00
2022-12-14T19:44:26.812Z,-2.10
2022-12-14T19:46:57.527Z,-2.00
2022-12-14T19:49:27.564Z,-1.90
2022-12-14T19:51:56.565Z,-1.90
2022-12-14T19:54:27.301Z,-1.90
2022-12-14T19:56:56.117Z,-1.90
2022-12-14T19:59:25.365Z,-2.00
2022-12-14T20:01:56.588Z,-2.30
2022-12-14T20:04:26.332Z,-2.40
2022-12-14T20:06:58.124Z,-2.10
2022-12-14T20:09:27.616Z,-2.00
2022-12-14T20:11:57.240Z,-2.00
2022-12-14T20:14:26.805Z,-2.00
2022-12-14T20:16:57.564Z,-2.00
2022-12-14T20:19:26.413Z,-2.40
2022-12-14T20:21:57.152Z,-2.20
2022-12-14T20:24:26.379Z,-2.20
2022-12-14T20:26:57.680Z,-2.20
2022-12-14T20:29:28.056Z,-2.30
2022-12-14T20:31:58.477Z,-2.20
2022-12-14T20:34:27.965Z,-2.40
2022-12-14T20:36:59.974Z,-2.40
2022-12-14T20:39:29.642Z,-2.40
2022-12-14T20:41:59.079Z,-2.40
2022-12-14T20:44:28.617Z,-2.40
2022-12-14T20:46:57.995Z,-2.30
2022-12-14T20:49:30.822Z,-2.30
2022-12-14T20:52:00.544Z,-2.40
2022-12-14T20:54:30.111Z,-2.50
2022-12-14T21:23:37.353Z,-2.60
2022-12-14T21:26:07.571Z,-2.70
2022-12-14T21:28:35.678Z,-2.70
2022-12-14T21:31:07.994Z,-2.40
2022-12-14T21:33:35.858Z,-2.30
2022-12-14T21:36:09.663Z,-2.20
2022-12-14T21:38:38.466Z,-2.20
2022-12-14T21:41:25.745Z,-2.10
2022-12-14T21:43:53.743Z,-2.20
2022-12-14T21:46:23.642Z,-2.20
2022-12-14T21:48:54.171Z,-2.20
2022-12-14T21:51:21.767Z,-2.20
2022-12-14T21:54:01.384Z,-2.20
2022-12-14T21:56:48.808Z,-2.20
2022-12-14T21:59:18.624Z,-2.10
2022-12-14T22:01:46.325Z,-2.20
2022-12-14T22:04:14.534Z,-2.20
2022-12-14T22:06:42.042Z,-2.40
2022-12-14T22:09:09.766Z,-2.50
2022-12-14T22:11:37.460Z,-2.40
2022-12-14T22:14:05.146Z,-2.30
2022-12-14T22:16:34.640Z,-2.20
2022-12-14T22:19:02.285Z,-2.10
2022-12-14T22:21:29.967Z,-2.10
2022-12-14T22:23:57.718Z,-2.10
2022-12-14T22:26:25.381Z,-2.10
2022-12-14T22:28:53.723Z,-2.10
2022-12-14T22:31:21.692Z,-2.00
2022-12-14T22:33:50.290Z,-2.00
2022-12-14T22:36:18.478Z,-2.00
2022-12-14T22:38:46.024Z,-2.00
2022-12-14T22:41:15.614Z,-2.00
2022-12-14T22:43:44.662Z,-2.00
2022-12-14T22:46:13.625Z,-2.00
2022-12-14T22:48:41.423Z,-2.10
2022-12-14T22:51:13.006Z,-2.00
2022-12-14T22:53:41.200Z,-2.00
2022-12-14T22:56:18.093Z,-2.00
2022-12-14T22:58:55.750Z,-2.40
2022-12-14T23:01:23.911Z,-2.10
2022-12-14T23:03:53.257Z,-2.20
2022-12-14T23:06:21.387Z,-2.10
2022-12-14T23:09:08.695Z,-2.10
2022-12-14T23:11:55.087Z,-2.00
2022-12-14T23:14:41.406Z,-2.00
2022-12-14T23:17:27.334Z,-2.00
2022-12-14T23:20:13.572Z,-1.90
2022-12-14T23:22:59.764Z,-1.90
2022-12-14T23:25:45.797Z,-1.80
2022-12-14T23:28:31.927Z,-1.90
2022-12-14T23:31:18.121Z,-2.00
2022-12-14T23:34:04.253Z,-1.90
2022-12-14T23:36:50.407Z,-1.80
2022-12-14T23:39:36.594Z,-1.70
2022-12-14T23:42:22.827Z,-1.80
2022-12-14T23:45:09.026Z,-1.80
2022-12-14T23:47:55.290Z,-1.80
2022-12-14T23:50:41.314Z,-1.80
2022-12-14T23:53:28.048Z,-1.80
2022-12-14T23:56:14.467Z,-1.80
2022-12-14T23:59:00.691Z,-1.70
